Copper Queen, Arizona
Current Conditions -  °F | °C
As of 9:56 PM on Saturday 25 Oct 2014 (Local Time) from KDUG Reporting Station
Broken Clouds Broken Clouds  
Wind Chill: 64°   Ceiling: 9000
Heat Index: 64°   Visibility: 10mi
Dew Point: 49°   Wind: 5mph
Humidity: 58%   Direction: 90°E
Pressure: 30.15"   Gusts: NA
Location:  31.4799°N, 109.96°W
Report Text: KDUG 260456Z AUTO 09004KT 10SM BKN090 18/09 A3015 RMK AO2 SLP150 T01780094
Loading
Personal Weather Stations






























Interactive Weather Map New forecast layout! Learn more

10-Day Weather Forecast

Advertisements
Track Severe Weather on mobile